sensor_id;sensor_type;location;lat;lon;timestamp;P1;durP1;ratioP1;P2;durP2;ratioP2
4676;SDS011;2352;48.180;11.478;2022-09-09T00:00:26;1.40;;;0.97;;
4676;SDS011;2352;48.180;11.478;2022-09-09T00:03:31;1.10;;;0.80;;
4676;SDS011;2352;48.180;11.478;2022-09-09T00:06:43;0.57;;;0.57;;
4676;SDS011;2352;48.180;11.478;2022-09-09T00:09:49;0.83;;;0.83;;
4676;SDS011;2352;48.180;11.478;2022-09-09T00:12:57;0.90;;;0.83;;
4676;SDS011;2352;48.180;11.478;2022-09-09T00:16:07;0.93;;;0.70;;
4676;SDS011;2352;48.180;11.478;2022-09-09T00:19:15;1.25;;;0.85;;
4676;SDS011;2352;48.180;11.478;2022-09-09T00:22:22;4.27;;;0.70;;
4676;SDS011;2352;48.180;11.478;2022-09-09T00:25:29;8.37;;;1.57;;
4676;SDS011;2352;48.180;11.478;2022-09-09T00:28:36;1.23;;;0.70;;
4676;SDS011;2352;48.180;11.478;2022-09-09T00:31:41;0.90;;;0.80;;
4676;SDS011;2352;48.180;11.478;2022-09-09T00:34:47;0.77;;;0.67;;
4676;SDS011;2352;48.180;11.478;2022-09-09T00:37:51;1.23;;;0.80;;
4676;SDS011;2352;48.180;11.478;2022-09-09T00:40:58;1.90;;;1.03;;
4676;SDS011;2352;48.180;11.478;2022-09-09T00:44:09;2.83;;;1.25;;
4676;SDS011;2352;48.180;11.478;2022-09-09T00:47:26;1.07;;;0.97;;
4676;SDS011;2352;48.180;11.478;2022-09-09T00:50:35;0.97;;;0.77;;
4676;SDS011;2352;48.180;11.478;2022-09-09T00:53:51;1.10;;;1.00;;
4676;SDS011;2352;48.180;11.478;2022-09-09T00:57:03;1.13;;;0.83;;
4676;SDS011;2352;48.180;11.478;2022-09-09T01:00:19;1.00;;;0.90;;
4676;SDS011;2352;48.180;11.478;2022-09-09T01:03:26;1.43;;;1.33;;
4676;SDS011;2352;48.180;11.478;2022-09-09T01:06:30;1.33;;;0.80;;
4676;SDS011;2352;48.180;11.478;2022-09-09T01:09:37;1.17;;;1.07;;
4676;SDS011;2352;48.180;11.478;2022-09-09T01:12:46;0.80;;;0.80;;
4676;SDS011;2352;48.180;11.478;2022-09-09T01:15:50;0.77;;;0.77;;
4676;SDS011;2352;48.180;11.478;2022-09-09T01:19:01;0.93;;;0.90;;
4676;SDS011;2352;48.180;11.478;2022-09-09T01:22:07;1.13;;;0.70;;
4676;SDS011;2352;48.180;11.478;2022-09-09T01:25:25;0.80;;;0.80;;
4676;SDS011;2352;48.180;11.478;2022-09-09T01:28:31;1.73;;;0.63;;
4676;SDS011;2352;48.180;11.478;2022-09-09T01:31:38;1.93;;;0.93;;
4676;SDS011;2352;48.180;11.478;2022-09-09T01:34:43;1.10;;;1.03;;
4676;SDS011;2352;48.180;11.478;2022-09-09T01:37:47;1.37;;;1.07;;
4676;SDS011;2352;48.180;11.478;2022-09-09T01:40:50;1.17;;;1.00;;
4676;SDS011;2352;48.180;11.478;2022-09-09T01:43:56;0.80;;;0.80;;
4676;SDS011;2352;48.180;11.478;2022-09-09T01:47:00;0.80;;;0.80;;
4676;SDS011;2352;48.180;11.478;2022-09-09T01:50:03;0.90;;;0.80;;
4676;SDS011;2352;48.180;11.478;2022-09-09T01:53:07;0.80;;;0.80;;
4676;SDS011;2352;48.180;11.478;2022-09-09T01:56:13;1.17;;;1.07;;
4676;SDS011;2352;48.180;11.478;2022-09-09T01:59:24;1.47;;;1.03;;
4676;SDS011;2352;48.180;11.478;2022-09-09T02:02:30;1.57;;;1.07;;
4676;SDS011;2352;48.180;11.478;2022-09-09T02:05:36;0.97;;;0.87;;
4676;SDS011;2352;48.180;11.478;2022-09-09T02:08:40;2.03;;;1.20;;
4676;SDS011;2352;48.180;11.478;2022-09-09T02:11:45;0.90;;;0.90;;
4676;SDS011;2352;48.180;11.478;2022-09-09T02:14:52;1.07;;;0.97;;
4676;SDS011;2352;48.180;11.478;2022-09-09T02:17:58;0.90;;;0.67;;
4676;SDS011;2352;48.180;11.478;2022-09-09T02:21:02;1.60;;;0.83;;
4676;SDS011;2352;48.180;11.478;2022-09-09T02:24:07;0.80;;;0.80;;
4676;SDS011;2352;48.180;11.478;2022-09-09T02:27:11;1.60;;;0.97;;
4676;SDS011;2352;48.180;11.478;2022-09-09T02:30:17;0.60;;;0.60;;
4676;SDS011;2352;48.180;11.478;2022-09-09T02:33:21;0.80;;;0.80;;
4676;SDS011;2352;48.180;11.478;2022-09-09T02:36:26;0.80;;;0.80;;
4676;SDS011;2352;48.180;11.478;2022-09-09T02:39:31;0.83;;;0.70;;
4676;SDS011;2352;48.180;11.478;2022-09-09T02:42:38;1.10;;;0.90;;
4676;SDS011;2352;48.180;11.478;2022-09-09T02:45:44;0.60;;;0.60;;
4676;SDS011;2352;48.180;11.478;2022-09-09T02:48:52;0.70;;;0.70;;
4676;SDS011;2352;48.180;11.478;2022-09-09T02:52:00;1.03;;;0.70;;
4676;SDS011;2352;48.180;11.478;2022-09-09T02:55:04;2.30;;;0.80;;
4676;SDS011;2352;48.180;11.478;2022-09-09T02:58:11;3.33;;;0.80;;
4676;SDS011;2352;48.180;11.478;2022-09-09T03:01:19;0.90;;;0.63;;
4676;SDS011;2352;48.180;11.478;2022-09-09T03:04:23;0.73;;;0.73;;
4676;SDS011;2352;48.180;11.478;2022-09-09T03:07:27;1.40;;;1.00;;
4676;SDS011;2352;48.180;11.478;2022-09-09T03:10:30;1.30;;;0.80;;
4676;SDS011;2352;48.180;11.478;2022-09-09T03:13:34;1.87;;;1.10;;
4676;SDS011;2352;48.180;11.478;2022-09-09T03:16:39;1.20;;;0.67;;
4676;SDS011;2352;48.180;11.478;2022-09-09T03:19:43;0.77;;;0.77;;
4676;SDS011;2352;48.180;11.478;2022-09-09T03:22:46;0.70;;;0.70;;
4676;SDS011;2352;48.180;11.478;2022-09-09T03:25:50;0.80;;;0.80;;
4676;SDS011;2352;48.180;11.478;2022-09-09T03:28:58;2.13;;;1.07;;
4676;SDS011;2352;48.180;11.478;2022-09-09T03:32:03;0.80;;;0.70;;
4676;SDS011;2352;48.180;11.478;2022-09-09T03:35:06;1.27;;;0.87;;
4676;SDS011;2352;48.180;11.478;2022-09-09T03:38:10;0.60;;;0.60;;
4676;SDS011;2352;48.180;11.478;2022-09-09T03:41:13;1.83;;;0.80;;
4676;SDS011;2352;48.180;11.478;2022-09-09T03:44:16;0.70;;;0.70;;
4676;SDS011;2352;48.180;11.478;2022-09-09T03:47:21;7.53;;;0.97;;
4676;SDS011;2352;48.180;11.478;2022-09-09T03:50:25;0.90;;;0.87;;
4676;SDS011;2352;48.180;11.478;2022-09-09T03:53:28;0.50;;;0.50;;
4676;SDS011;2352;48.180;11.478;2022-09-09T03:56:31;1.07;;;0.80;;
4676;SDS011;2352;48.180;11.478;2022-09-09T03:59:35;1.40;;;0.67;;
4676;SDS011;2352;48.180;11.478;2022-09-09T04:02:40;1.80;;;0.80;;
4676;SDS011;2352;48.180;11.478;2022-09-09T04:05:44;0.77;;;0.63;;
4676;SDS011;2352;48.180;11.478;2022-09-09T04:08:47;0.60;;;0.50;;
4676;SDS011;2352;48.180;11.478;2022-09-09T04:11:53;1.00;;;0.70;;
4676;SDS011;2352;48.180;11.478;2022-09-09T04:14:56;3.10;;;0.63;;
4676;SDS011;2352;48.180;11.478;2022-09-09T04:18:01;1.43;;;1.00;;
4676;SDS011;2352;48.180;11.478;2022-09-09T04:21:04;1.13;;;1.03;;
4676;SDS011;2352;48.180;11.478;2022-09-09T04:24:09;2.87;;;1.10;;
4676;SDS011;2352;48.180;11.478;2022-09-09T04:27:12;0.93;;;0.90;;
4676;SDS011;2352;48.180;11.478;2022-09-09T04:30:15;0.70;;;0.70;;
4676;SDS011;2352;48.180;11.478;2022-09-09T04:33:20;1.03;;;0.50;;
4676;SDS011;2352;48.180;11.478;2022-09-09T04:36:23;0.77;;;0.77;;
4676;SDS011;2352;48.180;11.478;2022-09-09T04:39:26;1.40;;;1.30;;
4676;SDS011;2352;48.180;11.478;2022-09-09T04:42:30;1.80;;;0.77;;
4676;SDS011;2352;48.180;11.478;2022-09-09T04:45:37;2.03;;;0.70;;
4676;SDS011;2352;48.180;11.478;2022-09-09T04:48:43;1.70;;;1.13;;
4676;SDS011;2352;48.180;11.478;2022-09-09T04:51:48;0.77;;;0.77;;
4676;SDS011;2352;48.180;11.478;2022-09-09T04:54:51;0.80;;;0.80;;
4676;SDS011;2352;48.180;11.478;2022-09-09T04:57:55;0.70;;;0.70;;
4676;SDS011;2352;48.180;11.478;2022-09-09T05:01:06;1.00;;;0.90;;
4676;SDS011;2352;48.180;11.478;2022-09-09T05:04:11;1.10;;;0.87;;
4676;SDS011;2352;48.180;11.478;2022-09-09T05:07:15;1.20;;;0.80;;
4676;SDS011;2352;48.180;11.478;2022-09-09T05:10:18;0.80;;;0.70;;
4676;SDS011;2352;48.180;11.478;2022-09-09T05:13:21;0.80;;;0.80;;
4676;SDS011;2352;48.180;11.478;2022-09-09T05:16:25;1.07;;;0.53;;
4676;SDS011;2352;48.180;11.478;2022-09-09T05:19:30;3.53;;;0.87;;
4676;SDS011;2352;48.180;11.478;2022-09-09T05:22:33;0.43;;;0.43;;
4676;SDS011;2352;48.180;11.478;2022-09-09T05:25:37;0.90;;;0.70;;
4676;SDS011;2352;48.180;11.478;2022-09-09T05:28:41;0.80;;;0.80;;
4676;SDS011;2352;48.180;11.478;2022-09-09T05:31:44;1.37;;;1.27;;
4676;SDS011;2352;48.180;11.478;2022-09-09T05:34:49;1.07;;;0.73;;
4676;SDS011;2352;48.180;11.478;2022-09-09T05:37:53;1.00;;;1.00;;
4676;SDS011;2352;48.180;11.478;2022-09-09T05:40:57;2.10;;;1.73;;
4676;SDS011;2352;48.180;11.478;2022-09-09T05:44:01;4.07;;;1.23;;
4676;SDS011;2352;48.180;11.478;2022-09-09T05:47:04;1.47;;;0.90;;
4676;SDS011;2352;48.180;11.478;2022-09-09T05:50:10;1.77;;;1.00;;
4676;SDS011;2352;48.180;11.478;2022-09-09T05:53:15;1.90;;;0.70;;
4676;SDS011;2352;48.180;11.478;2022-09-09T05:56:18;0.70;;;0.70;;
4676;SDS011;2352;48.180;11.478;2022-09-09T05:59:23;1.03;;;0.97;;
4676;SDS011;2352;48.180;11.478;2022-09-09T06:02:26;3.43;;;1.20;;
4676;SDS011;2352;48.180;11.478;2022-09-09T06:05:31;5.30;;;2.70;;
4676;SDS011;2352;48.180;11.478;2022-09-09T06:08:36;8.73;;;4.83;;
4676;SDS011;2352;48.180;11.478;2022-09-09T06:11:40;5.80;;;4.30;;
4676;SDS011;2352;48.180;11.478;2022-09-09T06:14:44;4.33;;;3.93;;
4676;SDS011;2352;48.180;11.478;2022-09-09T06:17:47;4.53;;;4.13;;
4676;SDS011;2352;48.180;11.478;2022-09-09T06:20:58;2.60;;;2.40;;
4676;SDS011;2352;48.180;11.478;2022-09-09T06:24:03;5.23;;;1.90;;
4676;SDS011;2352;48.180;11.478;2022-09-09T06:27:06;1.80;;;1.40;;
4676;SDS011;2352;48.180;11.478;2022-09-09T06:30:10;2.57;;;1.10;;
4676;SDS011;2352;48.180;11.478;2022-09-09T06:33:13;1.90;;;1.23;;
4676;SDS011;2352;48.180;11.478;2022-09-09T06:36:18;1.10;;;0.90;;
4676;SDS011;2352;48.180;11.478;2022-09-09T06:39:22;1.23;;;0.80;;
4676;SDS011;2352;48.180;11.478;2022-09-09T06:42:25;1.53;;;1.00;;
4676;SDS011;2352;48.180;11.478;2022-09-09T06:45:28;1.07;;;0.70;;
4676;SDS011;2352;48.180;11.478;2022-09-09T06:48:32;0.50;;;0.50;;
4676;SDS011;2352;48.180;11.478;2022-09-09T06:51:37;0.50;;;0.50;;
4676;SDS011;2352;48.180;11.478;2022-09-09T06:54:44;1.13;;;0.60;;
4676;SDS011;2352;48.180;11.478;2022-09-09T06:57:47;0.67;;;0.63;;
4676;SDS011;2352;48.180;11.478;2022-09-09T07:00:51;0.70;;;0.70;;
4676;SDS011;2352;48.180;11.478;2022-09-09T07:03:55;0.80;;;0.70;;
4676;SDS011;2352;48.180;11.478;2022-09-09T07:07:01;2.00;;;0.80;;
4676;SDS011;2352;48.180;11.478;2022-09-09T07:10:04;0.83;;;0.57;;
4676;SDS011;2352;48.180;11.478;2022-09-09T07:13:08;3.53;;;0.80;;
4676;SDS011;2352;48.180;11.478;2022-09-09T07:16:12;1.67;;;0.80;;
4676;SDS011;2352;48.180;11.478;2022-09-09T07:19:16;1.48;;;1.10;;
4676;SDS011;2352;48.180;11.478;2022-09-09T07:22:20;3.63;;;0.93;;
4676;SDS011;2352;48.180;11.478;2022-09-09T07:25:24;1.00;;;0.90;;
4676;SDS011;2352;48.180;11.478;2022-09-09T07:28:29;1.13;;;0.90;;
4676;SDS011;2352;48.180;11.478;2022-09-09T07:31:33;2.17;;;0.97;;
4676;SDS011;2352;48.180;11.478;2022-09-09T07:34:37;1.00;;;0.90;;
4676;SDS011;2352;48.180;11.478;2022-09-09T07:37:42;1.30;;;1.20;;
4676;SDS011;2352;48.180;11.478;2022-09-09T07:40:51;1.40;;;0.90;;
4676;SDS011;2352;48.180;11.478;2022-09-09T07:43:54;1.13;;;0.77;;
4676;SDS011;2352;48.180;11.478;2022-09-09T07:46:57;0.87;;;0.80;;
4676;SDS011;2352;48.180;11.478;2022-09-09T07:50:02;1.70;;;1.13;;
4676;SDS011;2352;48.180;11.478;2022-09-09T07:53:06;1.70;;;1.00;;
4676;SDS011;2352;48.180;11.478;2022-09-09T07:56:11;1.23;;;1.03;;
4676;SDS011;2352;48.180;11.478;2022-09-09T07:59:14;1.15;;;0.95;;
4676;SDS011;2352;48.180;11.478;2022-09-09T08:02:18;2.37;;;0.90;;
4676;SDS011;2352;48.180;11.478;2022-09-09T08:05:21;2.17;;;1.10;;
4676;SDS011;2352;48.180;11.478;2022-09-09T08:08:26;1.63;;;1.20;;
4676;SDS011;2352;48.180;11.478;2022-09-09T08:11:29;1.80;;;1.15;;
4676;SDS011;2352;48.180;11.478;2022-09-09T08:14:39;2.30;;;0.90;;
4676;SDS011;2352;48.180;11.478;2022-09-09T08:17:42;1.57;;;0.80;;
4676;SDS011;2352;48.180;11.478;2022-09-09T08:20:45;2.45;;;0.88;;
4676;SDS011;2352;48.180;11.478;2022-09-09T08:23:51;1.13;;;1.13;;
4676;SDS011;2352;48.180;11.478;2022-09-09T08:26:58;2.00;;;1.03;;
4676;SDS011;2352;48.180;11.478;2022-09-09T08:30:02;1.75;;;1.23;;
4676;SDS011;2352;48.180;11.478;2022-09-09T08:33:05;1.73;;;1.10;;
4676;SDS011;2352;48.180;11.478;2022-09-09T08:36:10;0.87;;;0.77;;
4676;SDS011;2352;48.180;11.478;2022-09-09T08:39:15;2.27;;;1.10;;
4676;SDS011;2352;48.180;11.478;2022-09-09T08:42:30;1.10;;;1.00;;
4676;SDS011;2352;48.180;11.478;2022-09-09T08:45:35;1.42;;;0.90;;
4676;SDS011;2352;48.180;11.478;2022-09-09T08:48:46;1.23;;;0.90;;
4676;SDS011;2352;48.180;11.478;2022-09-09T08:51:51;1.00;;;0.90;;
4676;SDS011;2352;48.180;11.478;2022-09-09T08:54:58;2.83;;;0.90;;
4676;SDS011;2352;48.180;11.478;2022-09-09T08:58:06;1.30;;;1.17;;
4676;SDS011;2352;48.180;11.478;2022-09-09T09:01:17;1.67;;;1.10;;
4676;SDS011;2352;48.180;11.478;2022-09-09T09:04:33;2.20;;;0.82;;
4676;SDS011;2352;48.180;11.478;2022-09-09T09:07:43;2.13;;;0.80;;
4676;SDS011;2352;48.180;11.478;2022-09-09T09:10:51;1.00;;;0.90;;
4676;SDS011;2352;48.180;11.478;2022-09-09T09:13:59;1.20;;;1.10;;
4676;SDS011;2352;48.180;11.478;2022-09-09T09:17:04;0.85;;;0.68;;
4676;SDS011;2352;48.180;11.478;2022-09-09T09:20:11;1.33;;;1.20;;
4676;SDS011;2352;48.180;11.478;2022-09-09T09:23:17;1.20;;;1.10;;
4676;SDS011;2352;48.180;11.478;2022-09-09T09:26:26;1.33;;;1.23;;
4676;SDS011;2352;48.180;11.478;2022-09-09T09:29:31;3.60;;;1.37;;
4676;SDS011;2352;48.180;11.478;2022-09-09T09:32:57;1.75;;;0.95;;
4676;SDS011;2352;48.180;11.478;2022-09-09T09:36:01;1.83;;;0.70;;
4676;SDS011;2352;48.180;11.478;2022-09-09T09:39:09;2.33;;;0.90;;
4676;SDS011;2352;48.180;11.478;2022-09-09T09:42:34;3.53;;;0.85;;
4676;SDS011;2352;48.180;11.478;2022-09-09T09:45:40;0.73;;;0.70;;
4676;SDS011;2352;48.180;11.478;2022-09-09T09:49:08;0.40;;;0.40;;
4676;SDS011;2352;48.180;11.478;2022-09-09T09:52:12;1.00;;;0.60;;
4676;SDS011;2352;48.180;11.478;2022-09-09T09:55:16;0.93;;;0.63;;
4676;SDS011;2352;48.180;11.478;2022-09-09T09:58:21;1.30;;;0.73;;
4676;SDS011;2352;48.180;11.478;2022-09-09T10:01:26;1.83;;;0.77;;
4676;SDS011;2352;48.180;11.478;2022-09-09T10:04:31;1.02;;;0.80;;
4676;SDS011;2352;48.180;11.478;2022-09-09T10:07:34;5.30;;;0.93;;
4676;SDS011;2352;48.180;11.478;2022-09-09T10:10:47;1.23;;;0.90;;
4676;SDS011;2352;48.180;11.478;2022-09-09T10:13:57;1.17;;;1.03;;
4676;SDS011;2352;48.180;11.478;2022-09-09T10:17:07;1.10;;;0.70;;
4676;SDS011;2352;48.180;11.478;2022-09-09T10:20:18;1.48;;;1.00;;
4676;SDS011;2352;48.180;11.478;2022-09-09T10:23:28;1.23;;;0.70;;
4676;SDS011;2352;48.180;11.478;2022-09-09T10:26:35;1.70;;;0.80;;
4676;SDS011;2352;48.180;11.478;2022-09-09T10:29:50;1.45;;;0.75;;
4676;SDS011;2352;48.180;11.478;2022-09-09T10:32:55;2.28;;;0.80;;
4676;SDS011;2352;48.180;11.478;2022-09-09T10:36:07;0.70;;;0.60;;
4676;SDS011;2352;48.180;11.478;2022-09-09T10:39:16;0.70;;;0.70;;
4676;SDS011;2352;48.180;11.478;2022-09-09T10:42:21;2.72;;;1.25;;
4676;SDS011;2352;48.180;11.478;2022-09-09T10:45:33;1.20;;;0.57;;
4676;SDS011;2352;48.180;11.478;2022-09-09T10:48:44;1.10;;;0.98;;
4676;SDS011;2352;48.180;11.478;2022-09-09T10:51:53;1.15;;;1.05;;
4676;SDS011;2352;48.180;11.478;2022-09-09T10:55:00;0.93;;;0.70;;
4676;SDS011;2352;48.180;11.478;2022-09-09T10:58:05;1.02;;;0.73;;
4676;SDS011;2352;48.180;11.478;2022-09-09T11:01:12;3.13;;;0.70;;
4676;SDS011;2352;48.180;11.478;2022-09-09T11:04:19;1.75;;;0.70;;
4676;SDS011;2352;48.180;11.478;2022-09-09T11:07:25;0.88;;;0.88;;
4676;SDS011;2352;48.180;11.478;2022-09-09T11:10:34;0.70;;;0.57;;
4676;SDS011;2352;48.180;11.478;2022-09-09T11:13:42;0.70;;;0.43;;
4676;SDS011;2352;48.180;11.478;2022-09-09T11:16:49;0.82;;;0.68;;
4676;SDS011;2352;48.180;11.478;2022-09-09T11:19:53;0.95;;;0.60;;
4676;SDS011;2352;48.180;11.478;2022-09-09T11:22:58;1.08;;;0.50;;
4676;SDS011;2352;48.180;11.478;2022-09-09T11:26:02;2.15;;;0.63;;
4676;SDS011;2352;48.180;11.478;2022-09-09T11:29:15;0.55;;;0.55;;
4676;SDS011;2352;48.180;11.478;2022-09-09T11:35:46;0.70;;;0.70;;
4676;SDS011;2352;48.180;11.478;2022-09-09T11:38:51;1.25;;;0.88;;
4676;SDS011;2352;48.180;11.478;2022-09-09T11:41:55;0.63;;;0.63;;
4676;SDS011;2352;48.180;11.478;2022-09-09T11:45:08;0.35;;;0.35;;
4676;SDS011;2352;48.180;11.478;2022-09-09T11:48:22;0.68;;;0.50;;
4676;SDS011;2352;48.180;11.478;2022-09-09T11:51:28;0.40;;;0.40;;
4676;SDS011;2352;48.180;11.478;2022-09-09T11:54:47;1.13;;;0.70;;
4676;SDS011;2352;48.180;11.478;2022-09-09T11:57:56;1.48;;;0.50;;
4676;SDS011;2352;48.180;11.478;2022-09-09T12:01:00;0.43;;;0.40;;
4676;SDS011;2352;48.180;11.478;2022-09-09T12:07:33;0.75;;;0.63;;
4676;SDS011;2352;48.180;11.478;2022-09-09T12:10:38;0.73;;;0.43;;
4676;SDS011;2352;48.180;11.478;2022-09-09T12:13:51;0.40;;;0.40;;
4676;SDS011;2352;48.180;11.478;2022-09-09T12:16:55;0.50;;;0.50;;
4676;SDS011;2352;48.180;11.478;2022-09-09T12:20:03;0.65;;;0.50;;
4676;SDS011;2352;48.180;11.478;2022-09-09T12:23:15;0.80;;;0.50;;
4676;SDS011;2352;48.180;11.478;2022-09-09T12:26:27;0.73;;;0.50;;
4676;SDS011;2352;48.180;11.478;2022-09-09T12:29:33;0.60;;;0.50;;
4676;SDS011;2352;48.180;11.478;2022-09-09T12:32:40;1.05;;;0.65;;
4676;SDS011;2352;48.180;11.478;2022-09-09T12:35:46;0.95;;;0.73;;
4676;SDS011;2352;48.180;11.478;2022-09-09T12:38:52;1.02;;;0.77;;
4676;SDS011;2352;48.180;11.478;2022-09-09T12:41:56;2.45;;;0.52;;
4676;SDS011;2352;48.180;11.478;2022-09-09T12:44:59;0.57;;;0.50;;
4676;SDS011;2352;48.180;11.478;2022-09-09T12:48:04;1.00;;;0.40;;
4676;SDS011;2352;48.180;11.478;2022-09-09T12:51:16;0.40;;;0.35;;
4676;SDS011;2352;48.180;11.478;2022-09-09T12:54:22;0.47;;;0.30;;
4676;SDS011;2352;48.180;11.478;2022-09-09T12:57:25;0.40;;;0.30;;
4676;SDS011;2352;48.180;11.478;2022-09-09T13:00:29;2.83;;;0.50;;
4676;SDS011;2352;48.180;11.478;2022-09-09T13:03:33;2.75;;;0.47;;
4676;SDS011;2352;48.180;11.478;2022-09-09T13:06:46;1.38;;;0.50;;
4676;SDS011;2352;48.180;11.478;2022-09-09T13:09:51;1.13;;;0.45;;
4676;SDS011;2352;48.180;11.478;2022-09-09T13:12:54;1.08;;;0.65;;
4676;SDS011;2352;48.180;11.478;2022-09-09T13:15:59;0.47;;;0.30;;
4676;SDS011;2352;48.180;11.478;2022-09-09T13:19:06;0.65;;;0.65;;
4676;SDS011;2352;48.180;11.478;2022-09-09T13:22:13;1.15;;;0.50;;
4676;SDS011;2352;48.180;11.478;2022-09-09T13:25:19;1.65;;;0.32;;
4676;SDS011;2352;48.180;11.478;2022-09-09T13:28:23;0.88;;;0.50;;
4676;SDS011;2352;48.180;11.478;2022-09-09T13:31:36;0.50;;;0.50;;
4676;SDS011;2352;48.180;11.478;2022-09-09T13:34:39;0.75;;;0.30;;
4676;SDS011;2352;48.180;11.478;2022-09-09T13:37:53;1.23;;;0.50;;
4676;SDS011;2352;48.180;11.478;2022-09-09T13:40:58;1.80;;;0.70;;
4676;SDS011;2352;48.180;11.478;2022-09-09T13:44:04;0.68;;;0.40;;
4676;SDS011;2352;48.180;11.478;2022-09-09T13:47:17;0.77;;;0.50;;
4676;SDS011;2352;48.180;11.478;2022-09-09T13:50:21;1.95;;;1.13;;
4676;SDS011;2352;48.180;11.478;2022-09-09T13:53:25;1.08;;;0.50;;
4676;SDS011;2352;48.180;11.478;2022-09-09T13:56:31;0.70;;;0.40;;
4676;SDS011;2352;48.180;11.478;2022-09-09T13:59:34;0.50;;;0.50;;
4676;SDS011;2352;48.180;11.478;2022-09-09T14:02:58;0.90;;;0.65;;
4676;SDS011;2352;48.180;11.478;2022-09-09T14:06:03;0.52;;;0.50;;
4676;SDS011;2352;48.180;11.478;2022-09-09T14:09:07;0.68;;;0.52;;
4676;SDS011;2352;48.180;11.478;2022-09-09T14:12:12;0.47;;;0.47;;
4676;SDS011;2352;48.180;11.478;2022-09-09T14:15:16;1.02;;;0.90;;
4676;SDS011;2352;48.180;11.478;2022-09-09T14:18:20;1.27;;;0.70;;
4676;SDS011;2352;48.180;11.478;2022-09-09T14:21:24;0.40;;;0.40;;
4676;SDS011;2352;48.180;11.478;2022-09-09T14:24:28;0.93;;;0.50;;
4676;SDS011;2352;48.180;11.478;2022-09-09T14:27:33;1.13;;;0.43;;
4676;SDS011;2352;48.180;11.478;2022-09-09T14:30:37;0.65;;;0.40;;
4676;SDS011;2352;48.180;11.478;2022-09-09T14:33:40;0.98;;;0.45;;
4676;SDS011;2352;48.180;11.478;2022-09-09T14:36:44;0.57;;;0.40;;
4676;SDS011;2352;48.180;11.478;2022-09-09T14:39:48;0.30;;;0.30;;
4676;SDS011;2352;48.180;11.478;2022-09-09T14:42:53;0.32;;;0.30;;
4676;SDS011;2352;48.180;11.478;2022-09-09T14:45:57;0.73;;;0.40;;
4676;SDS011;2352;48.180;11.478;2022-09-09T14:49:00;0.65;;;0.40;;
4676;SDS011;2352;48.180;11.478;2022-09-09T14:52:04;0.95;;;0.60;;
4676;SDS011;2352;48.180;11.478;2022-09-09T14:55:08;1.30;;;0.70;;
4676;SDS011;2352;48.180;11.478;2022-09-09T14:58:13;0.35;;;0.30;;
4676;SDS011;2352;48.180;11.478;2022-09-09T15:01:17;0.88;;;0.50;;
4676;SDS011;2352;48.180;11.478;2022-09-09T15:04:21;2.10;;;0.38;;
4676;SDS011;2352;48.180;11.478;2022-09-09T15:07:25;1.67;;;0.60;;
4676;SDS011;2352;48.180;11.478;2022-09-09T15:10:29;0.45;;;0.40;;
4676;SDS011;2352;48.180;11.478;2022-09-09T15:13:35;1.20;;;0.40;;
4676;SDS011;2352;48.180;11.478;2022-09-09T15:16:39;6.75;;;0.40;;
4676;SDS011;2352;48.180;11.478;2022-09-09T15:19:42;1.70;;;0.35;;
4676;SDS011;2352;48.180;11.478;2022-09-09T15:22:46;1.23;;;0.50;;
4676;SDS011;2352;48.180;11.478;2022-09-09T15:25:52;3.72;;;0.40;;
4676;SDS011;2352;48.180;11.478;2022-09-09T15:28:57;0.30;;;0.30;;
4676;SDS011;2352;48.180;11.478;2022-09-09T15:32:01;1.20;;;0.55;;
4676;SDS011;2352;48.180;11.478;2022-09-09T15:35:05;0.65;;;0.40;;
4676;SDS011;2352;48.180;11.478;2022-09-09T15:38:08;2.80;;;0.50;;
4676;SDS011;2352;48.180;11.478;2022-09-09T15:41:14;0.52;;;0.52;;
4676;SDS011;2352;48.180;11.478;2022-09-09T15:44:19;0.85;;;0.82;;
4676;SDS011;2352;48.180;11.478;2022-09-09T15:47:23;1.25;;;0.80;;
4676;SDS011;2352;48.180;11.478;2022-09-09T15:50:27;0.70;;;0.40;;
4676;SDS011;2352;48.180;11.478;2022-09-09T15:53:33;0.88;;;0.40;;
4676;SDS011;2352;48.180;11.478;2022-09-09T15:56:37;1.30;;;0.55;;
4676;SDS011;2352;48.180;11.478;2022-09-09T15:59:41;1.45;;;0.50;;
4676;SDS011;2352;48.180;11.478;2022-09-09T16:02:46;0.63;;;0.40;;
4676;SDS011;2352;48.180;11.478;2022-09-09T16:05:50;1.17;;;0.57;;
4676;SDS011;2352;48.180;11.478;2022-09-09T16:08:54;0.52;;;0.30;;
4676;SDS011;2352;48.180;11.478;2022-09-09T16:11:58;0.43;;;0.30;;
4676;SDS011;2352;48.180;11.478;2022-09-09T16:15:03;1.30;;;0.75;;
4676;SDS011;2352;48.180;11.478;2022-09-09T16:18:07;0.60;;;0.52;;
4676;SDS011;2352;48.180;11.478;2022-09-09T16:21:13;3.67;;;0.50;;
4676;SDS011;2352;48.180;11.478;2022-09-09T16:24:17;0.77;;;0.77;;
4676;SDS011;2352;48.180;11.478;2022-09-09T16:27:21;0.60;;;0.43;;
4676;SDS011;2352;48.180;11.478;2022-09-09T16:30:26;0.60;;;0.55;;
4676;SDS011;2352;48.180;11.478;2022-09-09T16:33:30;0.85;;;0.50;;
4676;SDS011;2352;48.180;11.478;2022-09-09T16:36:34;0.45;;;0.38;;
4676;SDS011;2352;48.180;11.478;2022-09-09T16:39:38;0.80;;;0.50;;
4676;SDS011;2352;48.180;11.478;2022-09-09T16:42:41;1.15;;;0.47;;
4676;SDS011;2352;48.180;11.478;2022-09-09T16:45:46;0.40;;;0.40;;
4676;SDS011;2352;48.180;11.478;2022-09-09T16:48:49;1.48;;;0.35;;
4676;SDS011;2352;48.180;11.478;2022-09-09T16:51:53;0.55;;;0.43;;
4676;SDS011;2352;48.180;11.478;2022-09-09T16:54:56;0.40;;;0.35;;
4676;SDS011;2352;48.180;11.478;2022-09-09T16:58:00;0.40;;;0.40;;
4676;SDS011;2352;48.180;11.478;2022-09-09T17:01:04;0.70;;;0.63;;
4676;SDS011;2352;48.180;11.478;2022-09-09T17:04:09;1.10;;;0.70;;
4676;SDS011;2352;48.180;11.478;2022-09-09T17:07:14;0.98;;;0.45;;
4676;SDS011;2352;48.180;11.478;2022-09-09T17:10:17;0.40;;;0.40;;
4676;SDS011;2352;48.180;11.478;2022-09-09T17:13:20;0.60;;;0.60;;
4676;SDS011;2352;48.180;11.478;2022-09-09T17:16:25;0.73;;;0.38;;
4676;SDS011;2352;48.180;11.478;2022-09-09T17:19:29;0.52;;;0.40;;
4676;SDS011;2352;48.180;11.478;2022-09-09T17:22:33;1.58;;;0.57;;
4676;SDS011;2352;48.180;11.478;2022-09-09T17:25:36;0.65;;;0.43;;
4676;SDS011;2352;48.180;11.478;2022-09-09T17:28:40;0.95;;;0.50;;
4676;SDS011;2352;48.180;11.478;2022-09-09T17:31:45;0.90;;;0.38;;
4676;SDS011;2352;48.180;11.478;2022-09-09T17:34:48;1.00;;;0.60;;
4676;SDS011;2352;48.180;11.478;2022-09-09T17:37:53;0.70;;;0.40;;
4676;SDS011;2352;48.180;11.478;2022-09-09T17:41:00;1.35;;;0.68;;
4676;SDS011;2352;48.180;11.478;2022-09-09T17:44:04;0.57;;;0.45;;
4676;SDS011;2352;48.180;11.478;2022-09-09T17:47:14;0.70;;;0.70;;
4676;SDS011;2352;48.180;11.478;2022-09-09T17:50:17;2.00;;;0.75;;
4676;SDS011;2352;48.180;11.478;2022-09-09T17:53:20;1.35;;;0.75;;
4676;SDS011;2352;48.180;11.478;2022-09-09T17:56:24;2.30;;;0.65;;
4676;SDS011;2352;48.180;11.478;2022-09-09T17:59:29;1.60;;;0.88;;
4676;SDS011;2352;48.180;11.478;2022-09-09T18:02:34;0.60;;;0.60;;
4676;SDS011;2352;48.180;11.478;2022-09-09T18:05:39;1.83;;;0.77;;
4676;SDS011;2352;48.180;11.478;2022-09-09T18:08:46;1.10;;;0.63;;
4676;SDS011;2352;48.180;11.478;2022-09-09T18:11:50;5.60;;;1.73;;
4676;SDS011;2352;48.180;11.478;2022-09-09T18:14:54;2.30;;;2.05;;
4676;SDS011;2352;48.180;11.478;2022-09-09T18:18:05;1.17;;;1.08;;
4676;SDS011;2352;48.180;11.478;2022-09-09T18:21:08;1.92;;;1.20;;
4676;SDS011;2352;48.180;11.478;2022-09-09T18:24:13;2.08;;;1.00;;
4676;SDS011;2352;48.180;11.478;2022-09-09T18:27:17;1.67;;;0.98;;
4676;SDS011;2352;48.180;11.478;2022-09-09T18:30:20;1.60;;;1.00;;
4676;SDS011;2352;48.180;11.478;2022-09-09T18:33:25;0.98;;;0.80;;
4676;SDS011;2352;48.180;11.478;2022-09-09T18:36:30;0.80;;;0.63;;
4676;SDS011;2352;48.180;11.478;2022-09-09T18:39:34;1.75;;;0.60;;
4676;SDS011;2352;48.180;11.478;2022-09-09T18:42:37;0.70;;;0.30;;
4676;SDS011;2352;48.180;11.478;2022-09-09T18:45:41;0.50;;;0.50;;
4676;SDS011;2352;48.180;11.478;2022-09-09T18:48:46;0.50;;;0.50;;
4676;SDS011;2352;48.180;11.478;2022-09-09T18:51:51;0.60;;;0.60;;
4676;SDS011;2352;48.180;11.478;2022-09-09T18:54:54;1.48;;;0.55;;
4676;SDS011;2352;48.180;11.478;2022-09-09T18:57:57;0.90;;;0.50;;
4676;SDS011;2352;48.180;11.478;2022-09-09T19:01:02;0.85;;;0.40;;